Terminal Aerodrome Forecast
Issued by NWS

Current Version | Previous Version | Graphics & Text | Print | Product List | Glossary On
Versions: 1 2 3 4 5 6 7 8 9 10 11 12 13 14 15 16 17 18 19 20 21 22 23 24 25
255
FTUS41 KPBZ 161345 AAA
TAFHLG
TAF AMD
KHLG 161345Z 1614/1712 32012KT 6SM -RA SCT004 OVC030
     FM161500 31012G20KT 4SM -RADZ BR OVC010
     FM161600 31012G25KT 6SM -RA OVC010
     FM162000 33013G23KT P6SM BKN035
     FM170000 33012KT P6SM BKN035=

USA.gov is the U.S. government's official web portal to all federal, state and local government web resources and services.